ENCN/KRS METAR and TAF weather

Enter ICAO airport designator
Station Type Date Time Source
ENCN METAR 2018/01/17 06:20 UTC NOAA

ENCN 170620Z 04003KT 4000 SN VV006 M00/M01 Q0983


Station Type Date Time Source
ENCN Decoded METAR 2018/01/17 06:20 UTC NOAA

Kristiansand / Kjevik, Norway (ENCN) 58-12N 008-05E 17M
Jan 17, 2018 - 01:20 AM EST / 2018.01.17 0620 UTC
Wind: from the NE (040 degrees) at 3 MPH (3 KT):0
Visibility: 2 mile(s):0
Sky conditions: obscured
Weather: snow
Temperature: 32 F (0 C)
Dew Point: 30 F (-1 C)
Relative Humidity: 92%
Pressure (altimeter): 29.03 in. Hg (0983 hPa)
ob: ENCN 170620Z 04003KT 4000 SN VV006 M00/M01 Q0983
cycle: 6

Station Type Date Time Source
ENCN TAF 2016/05/06 12:39 UTC NOAA

TAF TAF ENCN 061100Z 0612/0712 14008KT 9999 FEW040


Example: see airport list